createdAt,value
2018-07-16T00:00:54.291Z,0.00
2018-07-16T00:01:54.271Z,0.00
2018-07-16T00:02:54.248Z,0.00
2018-07-16T00:03:54.221Z,0.00
2018-07-16T00:04:54.200Z,0.00
2018-07-16T00:05:54.179Z,0.00
2018-07-16T00:06:54.152Z,0.00
2018-07-16T00:07:54.126Z,0.00
2018-07-16T00:08:54.102Z,0.00
2018-07-16T00:09:54.080Z,0.00
2018-07-16T00:10:54.061Z,0.00
2018-07-16T00:11:54.035Z,0.00
2018-07-16T00:12:54.013Z,0.00
2018-07-16T00:13:53.988Z,0.00
2018-07-16T00:14:53.999Z,0.00
2018-07-16T00:15:53.941Z,0.00
2018-07-16T00:16:53.920Z,0.00
2018-07-16T00:17:53.892Z,0.00
2018-07-16T00:18:53.870Z,0.00
2018-07-16T00:19:53.847Z,0.00
2018-07-16T00:20:53.824Z,0.00
2018-07-16T00:21:53.800Z,0.00
2018-07-16T00:22:53.777Z,0.00
2018-07-16T00:23:53.756Z,0.00
2018-07-16T00:24:53.736Z,0.00
2018-07-16T00:25:53.708Z,0.00
2018-07-16T00:26:53.687Z,0.00
2018-07-16T00:27:53.669Z,0.00
2018-07-16T00:28:53.637Z,0.00
2018-07-16T00:29:53.616Z,0.00
2018-07-16T00:30:53.590Z,0.00
2018-07-16T00:31:53.569Z,0.00
2018-07-16T00:32:53.544Z,0.00
2018-07-16T00:33:53.521Z,0.00
2018-07-16T00:34:53.498Z,0.00
2018-07-16T00:35:53.473Z,0.00
2018-07-16T00:36:53.449Z,0.00
2018-07-16T00:37:53.426Z,0.00
2018-07-16T00:38:53.405Z,0.00
2018-07-16T00:39:53.381Z,0.00
2018-07-16T00:40:53.358Z,0.00
2018-07-16T00:41:53.339Z,0.00
2018-07-16T00:42:53.310Z,0.00
2018-07-16T00:43:53.285Z,0.00
2018-07-16T00:44:53.264Z,0.00
2018-07-16T00:45:53.242Z,0.00
2018-07-16T00:46:53.218Z,0.00
2018-07-16T00:47:53.199Z,0.00
2018-07-16T00:48:53.170Z,0.00
2018-07-16T00:49:53.147Z,0.00
2018-07-16T00:50:53.129Z,0.00
2018-07-16T00:51:53.101Z,0.00
2018-07-16T00:52:53.075Z,0.00
2018-07-16T00:53:53.051Z,0.00
2018-07-16T00:54:53.028Z,0.00
2018-07-16T00:55:53.004Z,0.00
2018-07-16T00:56:52.979Z,0.00
2018-07-16T00:57:52.955Z,0.00
2018-07-16T00:58:52.946Z,0.00
2018-07-16T00:59:52.913Z,0.00
2018-07-16T01:00:52.887Z,0.00
2018-07-16T01:01:52.862Z,0.00
2018-07-16T01:02:52.843Z,0.00
2018-07-16T01:03:52.814Z,0.00
2018-07-16T01:04:52.791Z,0.00
2018-07-16T01:05:52.766Z,0.00
2018-07-16T01:06:52.744Z,0.00
2018-07-16T01:07:52.719Z,0.00
2018-07-16T01:08:52.696Z,0.00
2018-07-16T01:09:52.672Z,0.00
2018-07-16T01:10:52.649Z,0.00
2018-07-16T01:11:52.625Z,0.00
2018-07-16T01:12:52.604Z,0.00
2018-07-16T01:13:52.580Z,0.00
2018-07-16T01:14:52.561Z,0.00
2018-07-16T01:15:52.530Z,0.00
2018-07-16T01:16:52.513Z,0.00
2018-07-16T01:17:52.482Z,0.00
2018-07-16T01:18:52.467Z,0.00
2018-07-16T01:19:52.441Z,0.00
2018-07-16T01:20:52.414Z,0.00
2018-07-16T01:21:52.389Z,0.00
2018-07-16T01:22:52.369Z,0.00
2018-07-16T01:23:52.345Z,0.00
2018-07-16T01:24:52.520Z,0.00
2018-07-16T01:25:52.293Z,0.00
2018-07-16T01:26:52.271Z,0.00
2018-07-16T01:27:52.245Z,0.00
2018-07-16T01:28:52.225Z,0.00
2018-07-16T01:29:52.203Z,0.00
2018-07-16T01:30:52.176Z,0.00
2018-07-16T01:31:52.153Z,0.00
2018-07-16T01:32:52.128Z,0.00
2018-07-16T01:33:52.104Z,0.00
2018-07-16T01:34:52.080Z,0.00
2018-07-16T01:35:52.057Z,0.00
2018-07-16T01:36:52.031Z,0.00
2018-07-16T01:37:52.006Z,0.00
2018-07-16T01:38:51.981Z,0.00
2018-07-16T01:39:51.964Z,0.00
2018-07-16T01:40:51.936Z,0.00
2018-07-16T01:41:51.910Z,0.00
2018-07-16T01:42:51.886Z,0.00
2018-07-16T01:43:51.864Z,0.00
2018-07-16T01:44:51.841Z,0.00
2018-07-16T01:45:52.217Z,0.00
2018-07-16T01:46:51.793Z,0.00
2018-07-16T01:47:51.767Z,0.00
2018-07-16T01:48:51.743Z,0.00
2018-07-16T01:49:51.718Z,0.00
2018-07-16T01:50:51.694Z,0.00
2018-07-16T01:51:51.671Z,0.00
2018-07-16T01:52:51.653Z,0.00
2018-07-16T01:53:51.624Z,0.00
2018-07-16T01:54:51.600Z,0.00
2018-07-16T01:55:51.576Z,0.00
2018-07-16T01:56:51.552Z,0.00
2018-07-16T01:57:51.526Z,0.00
2018-07-16T01:58:51.504Z,0.00
2018-07-16T01:59:51.476Z,0.00
2018-07-16T02:00:51.454Z,0.00
2018-07-16T02:01:51.431Z,0.00
2018-07-16T02:02:51.405Z,0.00
2018-07-16T02:03:51.383Z,0.00
2018-07-16T02:04:51.358Z,0.00
2018-07-16T02:05:51.334Z,0.00
2018-07-16T02:06:51.310Z,0.00
2018-07-16T02:07:51.283Z,0.00
2018-07-16T02:08:51.261Z,0.00
2018-07-16T02:09:51.236Z,0.00
2018-07-16T02:10:51.219Z,0.00
2018-07-16T02:11:51.188Z,0.00
2018-07-16T02:12:51.163Z,0.00
2018-07-16T02:13:51.139Z,0.00
2018-07-16T02:14:51.115Z,0.00
2018-07-16T02:15:51.097Z,0.00
2018-07-16T02:16:51.070Z,0.00
2018-07-16T02:17:51.044Z,0.00
2018-07-16T02:18:51.018Z,0.00
2018-07-16T02:19:50.993Z,0.00
2018-07-16T02:20:50.970Z,0.00
2018-07-16T02:21:50.943Z,0.00
2018-07-16T02:22:50.920Z,0.00
2018-07-16T02:23:50.897Z,0.00
2018-07-16T02:24:50.875Z,0.00
2018-07-16T02:25:50.851Z,0.00
2018-07-16T02:26:50.826Z,0.00
2018-07-16T02:27:50.803Z,0.00
2018-07-16T02:28:50.776Z,0.00
2018-07-16T02:29:50.752Z,0.00
2018-07-16T02:30:50.728Z,0.00
2018-07-16T02:31:50.703Z,0.00
2018-07-16T02:32:50.678Z,0.00
2018-07-16T02:33:50.653Z,0.00
2018-07-16T02:34:50.628Z,0.00
2018-07-16T02:35:50.608Z,0.00
2018-07-16T02:36:50.583Z,0.00
2018-07-16T02:37:50.713Z,0.00
2018-07-16T02:38:50.544Z,0.00
2018-07-16T02:39:50.510Z,0.00
2018-07-16T02:40:50.544Z,0.00
2018-07-16T02:41:50.458Z,0.00
2018-07-16T02:42:50.440Z,0.00
2018-07-16T02:43:50.410Z,0.00
2018-07-16T02:44:50.389Z,0.00
2018-07-16T02:45:50.362Z,0.00
2018-07-16T02:46:50.337Z,0.00
2018-07-16T02:47:50.321Z,0.00
2018-07-16T02:48:50.294Z,0.00
2018-07-16T02:49:50.263Z,0.00
2018-07-16T02:50:50.238Z,5.63
2018-07-16T02:51:50.219Z,5.63
2018-07-16T02:52:50.194Z,5.63
2018-07-16T02:53:50.171Z,5.63
2018-07-16T02:54:50.141Z,5.63
2018-07-16T02:55:50.117Z,5.63
2018-07-16T02:56:50.091Z,5.63
2018-07-16T02:57:50.067Z,11.25
2018-07-16T02:58:50.043Z,11.25
2018-07-16T02:59:50.019Z,11.25
2018-07-16T03:00:49.995Z,11.25
2018-07-16T03:01:49.969Z,11.25
2018-07-16T03:02:49.944Z,16.88
2018-07-16T03:03:49.923Z,16.88
2018-07-16T03:04:49.896Z,16.88
2018-07-16T03:05:49.876Z,16.88
2018-07-16T03:06:49.849Z,22.50
2018-07-16T03:07:49.823Z,22.50
2018-07-16T03:08:49.801Z,22.50
2018-07-16T03:09:49.774Z,28.13
2018-07-16T03:10:49.749Z,28.13
2018-07-16T03:11:49.740Z,28.13
2018-07-16T03:12:49.859Z,33.75
2018-07-16T03:13:49.681Z,33.75
2018-07-16T03:14:49.653Z,33.75
2018-07-16T03:15:49.627Z,39.38
2018-07-16T03:16:49.604Z,39.38
2018-07-16T03:17:49.580Z,45.00
2018-07-16T03:18:49.556Z,45.00
2018-07-16T03:19:49.529Z,50.63
2018-07-16T03:20:49.504Z,50.63
2018-07-16T03:21:49.481Z,50.63
2018-07-16T03:22:49.457Z,56.25
2018-07-16T03:23:49.434Z,56.25
2018-07-16T03:24:50.465Z,61.88
2018-07-16T03:25:49.388Z,67.50
2018-07-16T03:26:49.361Z,73.13
2018-07-16T03:27:49.333Z,73.13
2018-07-16T03:28:49.309Z,78.75
2018-07-16T03:29:49.283Z,84.38
2018-07-16T03:30:49.410Z,90.00
2018-07-16T03:31:49.235Z,90.00
2018-07-16T03:32:49.211Z,90.00
2018-07-16T03:33:49.187Z,95.63
2018-07-16T03:34:49.161Z,95.63
2018-07-16T03:35:49.140Z,101.25
2018-07-16T03:36:49.119Z,106.88
2018-07-16T03:37:49.090Z,106.88
2018-07-16T03:38:49.065Z,112.50
2018-07-16T03:39:49.041Z,118.13
2018-07-16T03:40:49.015Z,123.75
2018-07-16T03:41:48.989Z,123.75
2018-07-16T03:42:48.966Z,129.38
2018-07-16T03:43:48.943Z,135.00
2018-07-16T03:44:48.922Z,140.63
2018-07-16T03:45:48.892Z,140.63
2018-07-16T03:46:48.870Z,146.25
2018-07-16T03:47:48.846Z,151.88
2018-07-16T03:48:48.831Z,157.50
2018-07-16T03:49:48.796Z,174.38
2018-07-16T03:50:48.772Z,196.88
2018-07-16T03:51:48.744Z,219.38
2018-07-16T03:52:48.722Z,241.88
2018-07-16T03:53:48.856Z,241.88
2018-07-16T03:54:48.673Z,247.50
2018-07-16T03:55:48.657Z,253.13
2018-07-16T03:56:48.625Z,258.75
2018-07-16T03:57:48.601Z,264.38
2018-07-16T03:58:48.578Z,275.63
2018-07-16T03:59:48.552Z,281.25
2018-07-16T04:00:48.529Z,292.50
2018-07-16T04:01:48.503Z,303.75
2018-07-16T04:02:48.479Z,309.38
2018-07-16T04:03:48.458Z,315.00
2018-07-16T04:04:48.432Z,326.25
2018-07-16T04:05:48.408Z,331.88
2018-07-16T04:06:48.384Z,343.13
2018-07-16T04:07:48.365Z,348.75
2018-07-16T04:08:48.340Z,354.38
2018-07-16T04:09:48.316Z,365.63
2018-07-16T04:10:48.295Z,376.88
2018-07-16T04:11:48.268Z,382.50
2018-07-16T04:12:48.244Z,399.38
2018-07-16T04:13:48.218Z,399.38
2018-07-16T04:14:48.197Z,416.25
2018-07-16T04:15:48.176Z,416.25
2018-07-16T04:16:48.153Z,421.88
2018-07-16T04:17:48.132Z,433.13
2018-07-16T04:18:48.105Z,444.38
2018-07-16T04:19:48.084Z,455.63
2018-07-16T04:20:48.060Z,500.63
2018-07-16T04:21:48.036Z,472.50
2018-07-16T04:22:48.020Z,483.75
2018-07-16T04:23:47.989Z,489.38
2018-07-16T04:24:47.968Z,495.00
2018-07-16T04:25:47.951Z,511.88
2018-07-16T04:26:47.922Z,511.88
2018-07-16T04:27:47.903Z,523.13
2018-07-16T04:28:47.879Z,534.38
2018-07-16T04:29:47.856Z,545.63
2018-07-16T04:30:47.843Z,551.25
2018-07-16T04:31:47.810Z,556.88
2018-07-16T04:32:47.789Z,568.13
2018-07-16T04:33:47.766Z,585.00
2018-07-16T04:34:47.892Z,590.63
2018-07-16T04:35:47.722Z,596.25
2018-07-16T04:36:47.701Z,601.88
2018-07-16T04:37:47.676Z,607.50
2018-07-16T04:38:47.655Z,613.13
2018-07-16T04:39:47.643Z,618.75
2018-07-16T04:40:47.667Z,641.25
2018-07-16T04:41:47.591Z,652.50
2018-07-16T04:42:47.570Z,663.75
2018-07-16T04:43:47.546Z,675.00
2018-07-16T04:44:47.525Z,669.38
2018-07-16T04:45:47.503Z,691.88
2018-07-16T04:46:47.482Z,703.13
2018-07-16T04:47:47.461Z,708.75
2018-07-16T04:48:47.441Z,720.00
2018-07-16T04:49:47.418Z,725.63
2018-07-16T04:50:47.396Z,736.88
2018-07-16T04:51:47.375Z,759.38
2018-07-16T04:52:47.556Z,776.25
2018-07-16T04:53:47.537Z,781.88
2018-07-16T04:54:47.309Z,787.50
2018-07-16T04:55:47.292Z,787.50
2018-07-16T04:56:47.270Z,793.13
2018-07-16T04:57:47.249Z,804.38
2018-07-16T04:58:47.231Z,815.63
2018-07-16T04:59:47.207Z,821.25
2018-07-16T05:00:47.188Z,821.25
2018-07-16T05:01:47.164Z,832.50
2018-07-16T05:02:47.143Z,849.38
2018-07-16T05:03:47.124Z,866.25
2018-07-16T05:04:47.105Z,871.88
2018-07-16T05:05:47.082Z,894.38
2018-07-16T05:06:47.062Z,911.25
2018-07-16T05:07:47.040Z,916.88
2018-07-16T05:08:47.022Z,916.88
2018-07-16T05:09:47.002Z,945.00
2018-07-16T05:10:47.181Z,939.38
2018-07-16T05:11:46.958Z,945.00
2018-07-16T05:12:46.936Z,956.25
2018-07-16T05:13:47.118Z,990.00
2018-07-16T05:14:46.903Z,1040.63
2018-07-16T05:15:46.877Z,1046.25
2018-07-16T05:16:47.062Z,1068.75
2018-07-16T05:17:47.039Z,1125.00
2018-07-16T05:18:46.816Z,1147.50
2018-07-16T05:19:46.798Z,1125.00
2018-07-16T05:20:46.775Z,1125.00
2018-07-16T05:21:46.756Z,1141.88
2018-07-16T05:22:46.736Z,1130.63
2018-07-16T05:23:46.717Z,1147.50
2018-07-16T05:24:46.898Z,1153.13
2018-07-16T05:25:50.107Z,1175.63
2018-07-16T05:26:46.861Z,1192.50
2018-07-16T05:27:46.639Z,1226.25
2018-07-16T05:28:46.821Z,1215.00
2018-07-16T05:29:46.801Z,1215.00
2018-07-16T05:30:46.581Z,1231.88
2018-07-16T05:31:46.628Z,1248.75
2018-07-16T05:32:46.802Z,1299.38
2018-07-16T05:33:46.520Z,1333.13
2018-07-16T05:34:46.703Z,1344.38
2018-07-16T05:35:46.484Z,1338.75
2018-07-16T05:36:46.474Z,1321.88
2018-07-16T05:37:46.445Z,1355.63
2018-07-16T05:38:46.427Z,1389.38
2018-07-16T05:39:46.413Z,1395.00
2018-07-16T05:40:46.392Z,1383.75
2018-07-16T05:41:46.370Z,1417.50
2018-07-16T05:42:46.352Z,1400.63
2018-07-16T05:43:46.332Z,1423.13
2018-07-16T05:44:46.525Z,1456.88
2018-07-16T05:45:46.499Z,1479.38
2018-07-16T05:47:28.640Z,1485.00
2018-07-16T05:48:28.616Z,1524.38
2018-07-16T05:49:28.597Z,1524.38
2018-07-16T05:50:28.582Z,1501.88
2018-07-16T05:52:10.719Z,1569.38
2018-07-16T05:53:10.498Z,1569.38
2018-07-16T05:54:52.838Z,1620.00
2018-07-16T05:55:52.620Z,1631.25
2018-07-16T05:58:17.164Z,1659.38
2018-07-16T05:59:16.895Z,1659.38
2018-07-16T06:24:52.539Z,1732.50
2018-07-16T06:25:52.521Z,1681.88
2018-07-16T06:26:52.302Z,1659.38
2018-07-16T06:27:52.893Z,1636.88
2018-07-16T06:28:52.471Z,1642.50
2018-07-16T06:29:52.454Z,1625.63
2018-07-16T06:30:52.439Z,1535.63
2018-07-16T06:31:52.419Z,1423.13
2018-07-16T06:32:52.204Z,1350.00
2018-07-16T06:33:52.186Z,1288.13
2018-07-16T06:34:52.171Z,1231.88
2018-07-16T06:35:52.155Z,1192.50
2018-07-16T06:36:52.139Z,1170.00
2018-07-16T06:37:52.123Z,1164.38
2018-07-16T06:38:52.107Z,1158.75
2018-07-16T06:39:52.093Z,1153.13
2018-07-16T06:40:52.436Z,1170.00
2018-07-16T06:41:52.262Z,1411.88
2018-07-16T06:42:52.247Z,2182.50
2018-07-16T06:43:52.233Z,2671.88
2018-07-16T06:44:52.012Z,2581.88
2018-07-16T06:45:52.198Z,2430.00
2018-07-16T06:46:51.997Z,2283.75
2018-07-16T06:47:52.215Z,2272.50
2018-07-16T06:48:51.954Z,2379.38
2018-07-16T06:49:51.938Z,2497.50
2018-07-16T06:50:52.126Z,2520.00
2018-07-16T06:51:52.112Z,2576.25
2018-07-16T06:52:52.094Z,2598.75
2018-07-16T06:53:51.876Z,2542.50
2018-07-16T06:54:51.863Z,2531.25
2018-07-16T06:55:52.050Z,2576.25
2018-07-16T06:56:51.835Z,2458.13
2018-07-16T06:57:51.818Z,2491.88
2018-07-16T06:58:52.010Z,2565.00
2018-07-16T06:59:51.996Z,2643.75
2018-07-16T07:00:51.980Z,2739.38
2018-07-16T07:01:51.763Z,2638.13
2018-07-16T07:02:51.952Z,2576.25
2018-07-16T07:03:51.737Z,2463.75
2018-07-16T07:04:51.723Z,2503.13
2018-07-16T07:05:51.705Z,2576.25
2018-07-16T07:06:52.711Z,2570.63
2018-07-16T07:07:51.882Z,2621.25
2018-07-16T07:08:51.882Z,2536.88
2018-07-16T07:09:51.650Z,2525.63
2018-07-16T07:10:51.842Z,2643.75
2018-07-16T07:11:51.623Z,2632.50
2018-07-16T07:12:51.814Z,2716.88
2018-07-16T07:13:51.597Z,2626.88
2018-07-16T07:14:51.583Z,2542.50
2018-07-16T07:15:51.569Z,2666.25
2018-07-16T07:16:51.757Z,2587.50
2018-07-16T07:17:51.541Z,2581.88
2018-07-16T07:18:51.679Z,2581.88
2018-07-16T07:19:51.517Z,2626.88
2018-07-16T07:20:51.504Z,2621.25
2018-07-16T07:21:51.693Z,2626.88
2018-07-16T07:22:51.479Z,2643.75
2018-07-16T07:23:51.463Z,2722.50
2018-07-16T07:24:51.448Z,2705.63
2018-07-16T07:25:51.436Z,2722.50
2018-07-16T07:26:51.625Z,2716.88
2018-07-16T07:27:51.421Z,2649.38
2018-07-16T07:28:51.406Z,2733.75
2018-07-16T07:29:51.390Z,2812.50
2018-07-16T07:30:51.373Z,2874.38
2018-07-16T07:31:51.356Z,2812.50
2018-07-16T07:32:51.345Z,2705.63
2018-07-16T07:33:51.331Z,2711.25
2018-07-16T07:34:51.318Z,2745.00
2018-07-16T07:35:51.331Z,2851.88
2018-07-16T07:36:51.295Z,2874.38
2018-07-16T07:37:51.288Z,2874.38
2018-07-16T07:38:51.270Z,2885.63
2018-07-16T07:39:51.253Z,2778.75
2018-07-16T07:40:51.250Z,2790.00
2018-07-16T07:41:51.231Z,2868.75
2018-07-16T07:42:51.220Z,2902.50
2018-07-16T07:43:51.201Z,2863.13
2018-07-16T07:44:51.389Z,2806.88
2018-07-16T07:45:51.780Z,2902.50
2018-07-16T07:46:51.160Z,2930.63
2018-07-16T07:47:52.160Z,2874.38
2018-07-16T07:48:51.137Z,3093.75
2018-07-16T07:49:51.123Z,3037.50
2018-07-16T07:50:53.934Z,2970.00
2018-07-16T07:51:51.299Z,2936.25
2018-07-16T07:54:15.823Z,2885.63
2018-07-16T07:55:15.907Z,2970.00
2018-07-16T07:56:15.586Z,2761.88
2018-07-16T07:57:15.571Z,2711.25
2018-07-16T07:58:15.561Z,2874.38
2018-07-16T07:59:15.546Z,2908.13
2018-07-16T08:00:15.533Z,2936.25
2018-07-16T08:01:15.316Z,2925.00
2018-07-16T08:02:15.507Z,2936.25
2018-07-16T08:03:16.391Z,3099.38
2018-07-16T08:04:18.102Z,2981.25
2018-07-16T08:05:15.472Z,2953.13
2018-07-16T08:06:15.459Z,2868.75
2018-07-16T08:07:15.245Z,2930.63
2018-07-16T08:08:15.445Z,2941.88
2018-07-16T08:09:15.426Z,3082.50
2018-07-16T08:10:15.414Z,3048.75
2018-07-16T08:11:15.200Z,2992.50
2018-07-16T08:12:15.389Z,2998.13
2018-07-16T08:13:15.377Z,3054.38
2018-07-16T08:14:15.163Z,2970.00
2018-07-16T08:15:15.364Z,2947.50
2018-07-16T08:16:15.142Z,3003.75
2018-07-16T08:17:15.138Z,2930.63
2018-07-16T08:18:15.120Z,3020.63
2018-07-16T08:19:15.108Z,3037.50
2018-07-16T08:20:15.096Z,2930.63
2018-07-16T08:21:15.084Z,2981.25
2018-07-16T08:22:15.074Z,3048.75
2018-07-16T08:23:15.066Z,3082.50
2018-07-16T08:24:15.051Z,3020.63
2018-07-16T08:25:15.041Z,3076.88
2018-07-16T08:26:15.029Z,2964.38
2018-07-16T08:27:15.019Z,3071.25
2018-07-16T08:28:15.083Z,2964.38
2018-07-16T08:29:14.997Z,2986.88
2018-07-16T08:30:14.986Z,3133.13
2018-07-16T08:31:14.975Z,3088.13
2018-07-16T08:32:14.966Z,3150.00
2018-07-16T08:33:14.953Z,3200.63
2018-07-16T08:34:14.940Z,3071.25
2018-07-16T08:35:14.928Z,2868.75
2018-07-16T08:36:14.918Z,3009.38
2018-07-16T08:37:14.908Z,2981.25
2018-07-16T08:38:14.897Z,3200.63
2018-07-16T08:39:14.983Z,3121.88
2018-07-16T08:40:14.877Z,2947.50
2018-07-16T08:41:14.867Z,2896.88
2018-07-16T08:42:14.854Z,2998.13
2018-07-16T08:43:15.045Z,3166.88
2018-07-16T08:44:14.831Z,3178.13
2018-07-16T08:45:15.021Z,3161.25
2018-07-16T08:46:15.039Z,3301.88
2018-07-16T08:47:14.999Z,3307.50
2018-07-16T08:48:14.989Z,3341.25
2018-07-16T08:49:18.414Z,3420.00
2018-07-16T08:50:14.972Z,3408.75
2018-07-16T08:51:14.959Z,3234.38
2018-07-16T08:52:14.948Z,3341.25
2018-07-16T08:53:14.937Z,3318.75
2018-07-16T08:54:14.933Z,3121.88
2018-07-16T08:55:14.713Z,1074.38
2018-07-16T08:56:14.705Z,1051.88
2018-07-16T08:57:14.895Z,3639.38
2018-07-16T08:58:14.892Z,2401.88
2018-07-16T08:59:57.037Z,1406.25
2018-07-16T09:01:39.390Z,1119.38
2018-07-16T09:02:38.972Z,1293.75
2018-07-16T09:03:39.161Z,1929.38
2018-07-16T09:04:39.149Z,1473.75
2018-07-16T09:05:41.757Z,3442.50
2018-07-16T09:06:39.121Z,3757.50
2018-07-16T09:07:38.908Z,3796.88
2018-07-16T09:08:38.893Z,3706.88
2018-07-16T09:09:38.883Z,3656.25
2018-07-16T09:10:38.868Z,3774.38
2018-07-16T09:11:38.856Z,3774.38
2018-07-16T09:12:38.847Z,3785.63
2018-07-16T09:13:38.912Z,3960.00
2018-07-16T09:14:38.837Z,4033.13
2018-07-16T09:15:38.806Z,3971.25
2018-07-16T09:16:38.997Z,3909.38
2018-07-16T09:17:38.986Z,4055.63
2018-07-16T09:19:21.443Z,2171.25
2018-07-16T09:20:21.128Z,4201.88
2018-07-16T09:21:25.014Z,4111.88
2018-07-16T09:22:23.723Z,2233.13
2018-07-16T09:24:46.020Z,3200.63
2018-07-16T09:30:16.199Z,4010.63
2018-07-16T09:31:58.345Z,2120.63
2018-07-16T09:32:58.131Z,3538.13
2018-07-16T09:33:58.320Z,3937.50
2018-07-16T09:35:00.934Z,3785.63
2018-07-16T09:38:07.203Z,4050.00
2018-07-16T09:39:04.859Z,3465.00
2018-07-16T09:41:29.083Z,4005.00
2018-07-16T09:45:17.720Z,2626.88
2018-07-16T09:46:21.542Z,1158.75
2018-07-16T10:02:45.241Z,1625.63
2018-07-16T10:03:45.027Z,3774.38
2018-07-16T10:04:45.010Z,4190.63
2018-07-16T10:05:45.000Z,4100.63
2018-07-16T10:06:44.990Z,4050.00
2018-07-16T10:07:45.005Z,3566.25
2018-07-16T10:08:44.962Z,4061.25
2018-07-16T10:09:44.951Z,3993.75
2018-07-16T10:10:44.939Z,3993.75
2018-07-16T10:11:44.922Z,4185.00
2018-07-16T10:15:45.077Z,4455.00
2018-07-16T10:16:47.955Z,4455.00
2018-07-16T10:19:54.168Z,4477.50
2018-07-16T10:20:53.953Z,4455.00
2018-07-16T10:21:51.525Z,4646.25
2018-07-16T10:22:51.515Z,4494.38
2018-07-16T10:23:51.505Z,4432.50
2018-07-16T10:26:20.410Z,4764.38
2018-07-16T10:30:04.466Z,4674.38
2018-07-16T10:31:04.459Z,4556.25
2018-07-16T10:32:04.244Z,4398.75
2018-07-16T10:33:07.062Z,4578.75
2018-07-16T10:34:05.240Z,4725.00
2018-07-16T10:35:04.449Z,4674.38
2018-07-16T10:36:04.212Z,1423.13
2018-07-16T10:37:04.202Z,2857.50
2018-07-16T10:38:04.194Z,4275.00
2018-07-16T10:39:04.188Z,4038.75
2018-07-16T10:40:04.176Z,4308.75
2018-07-16T10:41:04.171Z,4381.88
2018-07-16T10:42:04.163Z,4342.50
2018-07-16T10:43:04.158Z,4297.50
2018-07-16T10:44:04.144Z,4353.75
2018-07-16T10:45:04.136Z,4156.88
2018-07-16T10:46:04.128Z,4308.75
2018-07-16T10:47:04.121Z,4353.75
2018-07-16T10:48:04.110Z,4336.88
2018-07-16T10:49:04.102Z,4477.50
2018-07-16T10:50:04.094Z,4505.63
2018-07-16T10:51:04.097Z,4629.38
2018-07-16T10:52:04.077Z,4640.63
2018-07-16T10:53:04.070Z,4483.13
2018-07-16T10:54:04.063Z,4426.88
2018-07-16T10:55:04.055Z,4578.75
2018-07-16T10:56:04.046Z,4500.00
2018-07-16T10:57:04.036Z,4370.63
2018-07-16T10:58:04.028Z,4376.25
2018-07-16T10:59:04.019Z,4612.50
2018-07-16T11:00:04.014Z,4713.75
2018-07-16T11:01:04.010Z,4680.00
2018-07-16T11:02:04.069Z,4533.75
2018-07-16T11:03:04.078Z,4708.13
2018-07-16T11:04:03.977Z,4792.50
2018-07-16T11:05:03.972Z,4708.13
2018-07-16T11:06:03.967Z,4848.75
2018-07-16T11:07:03.955Z,4921.88
2018-07-16T11:08:03.949Z,4910.63
2018-07-16T11:09:03.937Z,4657.50
2018-07-16T11:10:03.932Z,4685.63
2018-07-16T11:11:03.927Z,4758.75
2018-07-16T11:12:03.927Z,4725.00
2018-07-16T11:13:03.921Z,4871.25
2018-07-16T11:14:04.135Z,4713.75
2018-07-16T11:15:04.178Z,4843.13
2018-07-16T11:16:04.108Z,4696.88
2018-07-16T11:17:04.085Z,4376.25
2018-07-16T11:18:04.081Z,4483.13
2018-07-16T11:19:03.872Z,4803.75
2018-07-16T11:20:03.862Z,4770.00
2018-07-16T11:21:03.860Z,4753.13
2018-07-16T11:22:04.054Z,4460.63
2018-07-16T11:23:04.044Z,4786.88
2018-07-16T11:24:04.035Z,1670.63
2018-07-16T11:25:03.828Z,3217.50
2018-07-16T11:26:03.823Z,1378.13
2018-07-16T11:27:03.812Z,1316.25
2018-07-16T11:28:04.016Z,1265.63
2018-07-16T11:29:03.999Z,1248.75
2018-07-16T11:30:03.988Z,1282.50
2018-07-16T11:31:03.976Z,1203.75
2018-07-16T11:32:03.970Z,1215.00
2018-07-16T11:33:03.758Z,1383.75
2018-07-16T11:34:03.955Z,2733.75
2018-07-16T11:35:03.741Z,4753.13
2018-07-16T11:36:03.726Z,4753.13
2018-07-16T11:37:03.712Z,4578.75
2018-07-16T11:38:03.701Z,4455.00
2018-07-16T11:39:03.694Z,4477.50
2018-07-16T11:40:03.678Z,4668.75
2018-07-16T11:41:03.674Z,4618.13
2018-07-16T11:42:03.660Z,4578.75
2018-07-16T11:43:03.647Z,4730.63
2018-07-16T11:44:03.638Z,4550.63
2018-07-16T11:45:03.626Z,4606.88
2018-07-16T12:01:31.391Z,2745.00
2018-07-16T12:02:31.176Z,4910.63
2018-07-16T12:03:31.238Z,4736.25
2018-07-16T12:04:31.155Z,3110.63
2018-07-16T12:05:31.144Z,4848.75
2018-07-16T12:06:31.131Z,4545.00
2018-07-16T12:07:31.120Z,4792.50
2018-07-16T12:08:31.111Z,4882.50
2018-07-16T12:09:31.096Z,4809.38
2018-07-16T12:10:31.087Z,4606.88
2018-07-16T12:11:31.073Z,4713.75
2018-07-16T12:12:31.084Z,4635.00
2018-07-16T12:13:31.059Z,4820.63
2018-07-16T12:14:31.047Z,4865.63
2018-07-16T12:15:31.038Z,4657.50
2018-07-16T12:16:31.030Z,4578.75
2018-07-16T12:17:31.021Z,4623.75
2018-07-16T12:18:31.011Z,4426.88
2018-07-16T12:19:31.205Z,4786.88
2018-07-16T12:20:31.263Z,4691.25
2018-07-16T12:21:30.984Z,3397.50
2018-07-16T12:22:30.974Z,2013.75
2018-07-16T12:23:30.967Z,1901.25
2018-07-16T12:24:30.960Z,4590.00
2018-07-16T12:25:30.954Z,4843.13
2018-07-16T12:26:30.953Z,4083.75
2018-07-16T12:27:30.942Z,1603.13
2018-07-16T12:28:30.927Z,1417.50
2018-07-16T12:29:30.922Z,1316.25
2018-07-16T12:30:30.908Z,1260.00
2018-07-16T12:31:30.899Z,1231.88
2018-07-16T12:32:30.890Z,1265.63
2018-07-16T12:33:30.879Z,1254.38
2018-07-16T12:34:30.876Z,1260.00
2018-07-16T12:36:31.052Z,1355.63
2018-07-16T12:37:30.837Z,1428.75
2018-07-16T12:46:57.013Z,4933.13
2018-07-16T12:49:21.266Z,4213.13
2018-07-16T12:55:58.525Z,1625.63
2018-07-16T12:56:58.310Z,4252.50
2018-07-16T12:57:58.299Z,4573.13
2018-07-16T13:02:23.389Z,3695.63
2018-07-16T13:04:04.931Z,1490.63
2018-07-16T13:08:04.880Z,1333.13
2018-07-16T13:09:04.867Z,1434.38
2018-07-16T13:10:04.652Z,4348.13
2018-07-16T13:11:04.840Z,4376.25
2018-07-16T13:12:04.634Z,4387.50
2018-07-16T13:13:04.611Z,4320.00
2018-07-16T13:14:05.424Z,4359.38
2018-07-16T13:15:04.787Z,4421.25
2018-07-16T13:16:04.777Z,4432.50
2018-07-16T13:17:04.761Z,4303.13
2018-07-16T13:18:46.913Z,4275.00
2018-07-16T13:19:46.902Z,4438.13
2018-07-16T13:20:46.897Z,3999.38
2018-07-16T13:21:46.928Z,4353.75
2018-07-16T13:22:46.868Z,4275.00
2018-07-16T13:23:46.654Z,4111.88
2018-07-16T13:27:35.493Z,4066.88
2018-07-16T13:28:35.282Z,4151.25
2018-07-16T13:29:35.270Z,4089.38
2018-07-16T13:30:35.464Z,3988.13
2018-07-16T13:31:38.283Z,4016.25
2018-07-16T13:32:35.443Z,3808.13
2018-07-16T13:33:35.233Z,4016.25
2018-07-16T13:34:35.422Z,4134.38
2018-07-16T13:35:35.412Z,3943.13
2018-07-16T13:36:35.200Z,3819.38
2018-07-16T13:37:35.191Z,3931.88
2018-07-16T13:38:35.183Z,3982.50
2018-07-16T13:39:35.177Z,4055.63
2018-07-16T13:40:35.164Z,3909.38
2018-07-16T13:41:35.154Z,3808.13
2018-07-16T13:42:35.210Z,3825.00
2018-07-16T13:43:35.137Z,3988.13
2018-07-16T13:44:35.128Z,3875.63
2018-07-16T13:45:35.321Z,3870.00
2018-07-16T13:46:35.155Z,3853.13
2018-07-16T13:47:35.099Z,3768.75
2018-07-16T13:48:35.291Z,3982.50
2018-07-16T13:49:37.905Z,4066.88
2018-07-16T13:50:35.275Z,4083.75
2018-07-16T13:51:35.071Z,4117.50
2018-07-16T13:52:35.263Z,4089.38
2018-07-16T13:53:35.049Z,3892.50
2018-07-16T13:54:35.037Z,3836.25
2018-07-16T13:55:35.029Z,3881.25
2018-07-16T13:56:35.020Z,3960.00
2018-07-16T13:57:35.014Z,3875.63
2018-07-16T13:58:35.004Z,3836.25
2018-07-16T13:59:35.002Z,3740.63
2018-07-16T14:00:34.988Z,3841.88
2018-07-16T14:01:34.980Z,3948.75
2018-07-16T14:02:35.175Z,3678.75
2018-07-16T14:03:34.969Z,3543.75
2018-07-16T14:04:34.956Z,3459.38
2018-07-16T14:05:34.956Z,3150.00
2018-07-16T14:06:34.938Z,2379.38
2018-07-16T14:07:34.984Z,3465.00
2018-07-16T14:08:34.922Z,3515.63
2018-07-16T14:09:34.915Z,3600.00
2018-07-16T14:10:34.908Z,3712.50
2018-07-16T14:11:34.907Z,3684.38
2018-07-16T14:12:34.901Z,3656.25
2018-07-16T14:13:34.887Z,3526.88
2018-07-16T14:14:34.876Z,3436.88
2018-07-16T14:15:34.887Z,3375.00
2018-07-16T14:16:34.860Z,3296.25
2018-07-16T14:17:34.850Z,2019.38
2018-07-16T14:18:34.841Z,1496.25
2018-07-16T14:19:34.833Z,3296.25